sensor_id;sensor_type;location;lat;lon;timestamp;P1;durP1;ratioP1;P2;durP2;ratioP2
85158;SDS011;75525;50.718;10.600;2024-02-28T00:00:32;12.07;;;7.38;;
85158;SDS011;75525;50.718;10.600;2024-02-28T00:01:33;11.55;;;7.32;;
85158;SDS011;75525;50.718;10.600;2024-02-28T00:02:33;14.20;;;7.78;;
85158;SDS011;75525;50.718;10.600;2024-02-28T00:03:34;12.18;;;7.32;;
85158;SDS011;75525;50.718;10.600;2024-02-28T00:04:34;11.20;;;7.05;;
85158;SDS011;75525;50.718;10.600;2024-02-28T00:05:34;11.48;;;6.97;;
85158;SDS011;75525;50.718;10.600;2024-02-28T00:06:35;11.40;;;7.10;;
85158;SDS011;75525;50.718;10.600;2024-02-28T00:07:35;11.77;;;7.55;;
85158;SDS011;75525;50.718;10.600;2024-02-28T00:08:36;11.88;;;7.38;;
85158;SDS011;75525;50.718;10.600;2024-02-28T00:09:36;11.73;;;7.93;;
85158;SDS011;75525;50.718;10.600;2024-02-28T00:10:37;10.85;;;7.90;;
85158;SDS011;75525;50.718;10.600;2024-02-28T00:11:41;13.40;;;7.75;;
85158;SDS011;75525;50.718;10.600;2024-02-28T00:12:43;12.25;;;7.65;;
85158;SDS011;75525;50.718;10.600;2024-02-28T00:13:44;11.88;;;7.07;;
85158;SDS011;75525;50.718;10.600;2024-02-28T00:14:44;13.20;;;7.70;;
85158;SDS011;75525;50.718;10.600;2024-02-28T00:15:44;12.27;;;8.00;;
85158;SDS011;75525;50.718;10.600;2024-02-28T00:16:45;14.15;;;8.15;;
85158;SDS011;75525;50.718;10.600;2024-02-28T00:17:46;11.43;;;6.85;;
85158;SDS011;75525;50.718;10.600;2024-02-28T00:18:46;12.77;;;7.75;;
85158;SDS011;75525;50.718;10.600;2024-02-28T00:19:47;12.82;;;7.75;;
85158;SDS011;75525;50.718;10.600;2024-02-28T00:20:47;11.85;;;7.28;;
85158;SDS011;75525;50.718;10.600;2024-02-28T00:21:48;13.90;;;7.97;;
85158;SDS011;75525;50.718;10.600;2024-02-28T00:22:48;13.60;;;7.70;;
85158;SDS011;75525;50.718;10.600;2024-02-28T00:23:48;11.63;;;7.45;;
85158;SDS011;75525;50.718;10.600;2024-02-28T00:24:49;13.48;;;7.80;;
85158;SDS011;75525;50.718;10.600;2024-02-28T00:25:49;14.32;;;7.68;;
85158;SDS011;75525;50.718;10.600;2024-02-28T00:26:50;12.85;;;7.68;;
85158;SDS011;75525;50.718;10.600;2024-02-28T00:27:50;12.93;;;7.85;;
85158;SDS011;75525;50.718;10.600;2024-02-28T00:28:51;13.77;;;7.85;;
85158;SDS011;75525;50.718;10.600;2024-02-28T00:29:51;13.75;;;8.25;;
85158;SDS011;75525;50.718;10.600;2024-02-28T00:30:52;13.18;;;7.60;;
85158;SDS011;75525;50.718;10.600;2024-02-28T00:31:52;12.57;;;8.00;;
85158;SDS011;75525;50.718;10.600;2024-02-28T00:32:53;15.95;;;8.23;;
85158;SDS011;75525;50.718;10.600;2024-02-28T00:33:53;14.88;;;9.05;;
85158;SDS011;75525;50.718;10.600;2024-02-28T00:34:53;13.30;;;8.02;;
85158;SDS011;75525;50.718;10.600;2024-02-28T00:35:54;14.70;;;7.93;;
85158;SDS011;75525;50.718;10.600;2024-02-28T00:36:54;14.05;;;8.25;;
85158;SDS011;75525;50.718;10.600;2024-02-28T00:37:55;15.40;;;8.55;;
85158;SDS011;75525;50.718;10.600;2024-02-28T00:38:55;15.70;;;8.85;;
85158;SDS011;75525;50.718;10.600;2024-02-28T00:39:56;16.30;;;9.18;;
85158;SDS011;75525;50.718;10.600;2024-02-28T00:40:56;13.07;;;7.68;;
85158;SDS011;75525;50.718;10.600;2024-02-28T00:41:56;16.48;;;8.63;;
85158;SDS011;75525;50.718;10.600;2024-02-28T00:42:57;14.73;;;8.57;;
85158;SDS011;75525;50.718;10.600;2024-02-28T00:43:58;15.55;;;8.35;;
85158;SDS011;75525;50.718;10.600;2024-02-28T00:44:58;12.85;;;7.75;;
85158;SDS011;75525;50.718;10.600;2024-02-28T00:45:59;15.55;;;8.40;;
85158;SDS011;75525;50.718;10.600;2024-02-28T00:46:59;12.80;;;7.82;;
85158;SDS011;75525;50.718;10.600;2024-02-28T00:47:59;15.38;;;8.55;;
85158;SDS011;75525;50.718;10.600;2024-02-28T00:49:00;15.00;;;8.43;;
85158;SDS011;75525;50.718;10.600;2024-02-28T00:50:01;15.75;;;7.90;;
85158;SDS011;75525;50.718;10.600;2024-02-28T00:51:03;13.68;;;8.00;;
85158;SDS011;75525;50.718;10.600;2024-02-28T00:52:03;15.52;;;8.32;;
85158;SDS011;75525;50.718;10.600;2024-02-28T00:53:04;15.38;;;9.20;;
85158;SDS011;75525;50.718;10.600;2024-02-28T00:54:04;13.23;;;7.82;;
85158;SDS011;75525;50.718;10.600;2024-02-28T00:55:05;14.40;;;8.38;;
85158;SDS011;75525;50.718;10.600;2024-02-28T00:56:05;14.73;;;8.40;;
85158;SDS011;75525;50.718;10.600;2024-02-28T00:57:06;13.90;;;7.75;;
85158;SDS011;75525;50.718;10.600;2024-02-28T00:58:07;16.90;;;8.73;;
85158;SDS011;75525;50.718;10.600;2024-02-28T00:59:07;15.55;;;8.30;;
85158;SDS011;75525;50.718;10.600;2024-02-28T01:00:11;15.02;;;8.75;;
85158;SDS011;75525;50.718;10.600;2024-02-28T01:01:11;16.27;;;9.07;;
85158;SDS011;75525;50.718;10.600;2024-02-28T01:02:12;16.35;;;8.52;;
85158;SDS011;75525;50.718;10.600;2024-02-28T01:03:12;16.50;;;8.82;;
85158;SDS011;75525;50.718;10.600;2024-02-28T01:04:14;15.13;;;8.43;;
85158;SDS011;75525;50.718;10.600;2024-02-28T01:05:15;15.50;;;8.80;;
85158;SDS011;75525;50.718;10.600;2024-02-28T01:06:16;14.48;;;8.05;;
85158;SDS011;75525;50.718;10.600;2024-02-28T01:07:17;13.98;;;7.97;;
85158;SDS011;75525;50.718;10.600;2024-02-28T01:08:17;13.90;;;7.53;;
85158;SDS011;75525;50.718;10.600;2024-02-28T01:09:17;16.15;;;8.43;;
85158;SDS011;75525;50.718;10.600;2024-02-28T01:10:19;12.95;;;7.93;;
85158;SDS011;75525;50.718;10.600;2024-02-28T01:11:19;14.02;;;8.23;;
85158;SDS011;75525;50.718;10.600;2024-02-28T01:12:19;15.13;;;7.45;;
85158;SDS011;75525;50.718;10.600;2024-02-28T01:13:20;13.20;;;7.60;;
85158;SDS011;75525;50.718;10.600;2024-02-28T01:14:21;13.40;;;8.05;;
85158;SDS011;75525;50.718;10.600;2024-02-28T01:15:21;12.73;;;7.85;;
85158;SDS011;75525;50.718;10.600;2024-02-28T01:16:22;12.80;;;7.28;;
85158;SDS011;75525;50.718;10.600;2024-02-28T01:17:22;13.95;;;7.68;;
85158;SDS011;75525;50.718;10.600;2024-02-28T01:18:22;15.10;;;7.60;;
85158;SDS011;75525;50.718;10.600;2024-02-28T01:19:23;14.77;;;8.00;;
85158;SDS011;75525;50.718;10.600;2024-02-28T01:20:24;11.90;;;7.30;;
85158;SDS011;75525;50.718;10.600;2024-02-28T01:21:24;15.88;;;8.48;;
85158;SDS011;75525;50.718;10.600;2024-02-28T01:22:25;13.15;;;7.47;;
85158;SDS011;75525;50.718;10.600;2024-02-28T01:23:25;11.73;;;7.35;;
85158;SDS011;75525;50.718;10.600;2024-02-28T01:24:26;12.32;;;7.50;;
85158;SDS011;75525;50.718;10.600;2024-02-28T01:25:26;13.05;;;7.22;;
85158;SDS011;75525;50.718;10.600;2024-02-28T01:26:27;12.40;;;7.03;;
85158;SDS011;75525;50.718;10.600;2024-02-28T01:27:27;11.90;;;7.03;;
85158;SDS011;75525;50.718;10.600;2024-02-28T01:28:27;14.40;;;6.63;;
85158;SDS011;75525;50.718;10.600;2024-02-28T01:29:28;11.43;;;6.93;;
85158;SDS011;75525;50.718;10.600;2024-02-28T01:30:30;12.27;;;6.32;;
85158;SDS011;75525;50.718;10.600;2024-02-28T01:31:30;13.15;;;7.07;;
85158;SDS011;75525;50.718;10.600;2024-02-28T01:32:30;14.60;;;8.48;;
85158;SDS011;75525;50.718;10.600;2024-02-28T01:33:31;13.77;;;7.35;;
85158;SDS011;75525;50.718;10.600;2024-02-28T01:34:32;12.48;;;6.97;;
85158;SDS011;75525;50.718;10.600;2024-02-28T01:35:32;14.63;;;8.32;;
85158;SDS011;75525;50.718;10.600;2024-02-28T01:36:33;12.27;;;7.53;;
85158;SDS011;75525;50.718;10.600;2024-02-28T01:37:33;11.35;;;6.72;;
85158;SDS011;75525;50.718;10.600;2024-02-28T01:38:34;11.57;;;6.45;;
85158;SDS011;75525;50.718;10.600;2024-02-28T01:39:34;11.15;;;6.68;;
85158;SDS011;75525;50.718;10.600;2024-02-28T01:40:35;14.43;;;7.55;;
85158;SDS011;75525;50.718;10.600;2024-02-28T01:41:35;11.35;;;6.65;;
85158;SDS011;75525;50.718;10.600;2024-02-28T01:42:36;14.43;;;7.63;;
85158;SDS011;75525;50.718;10.600;2024-02-28T01:43:37;11.88;;;6.90;;
85158;SDS011;75525;50.718;10.600;2024-02-28T01:44:40;11.45;;;6.63;;
85158;SDS011;75525;50.718;10.600;2024-02-28T01:45:44;13.25;;;7.40;;
85158;SDS011;75525;50.718;10.600;2024-02-28T01:46:44;11.35;;;6.45;;
85158;SDS011;75525;50.718;10.600;2024-02-28T01:47:45;11.43;;;6.20;;
85158;SDS011;75525;50.718;10.600;2024-02-28T01:48:46;12.05;;;6.88;;
85158;SDS011;75525;50.718;10.600;2024-02-28T01:49:46;12.77;;;6.95;;
85158;SDS011;75525;50.718;10.600;2024-02-28T01:50:47;10.68;;;6.00;;
85158;SDS011;75525;50.718;10.600;2024-02-28T01:51:48;12.07;;;6.85;;
85158;SDS011;75525;50.718;10.600;2024-02-28T01:52:49;13.18;;;7.28;;
85158;SDS011;75525;50.718;10.600;2024-02-28T01:53:51;13.55;;;7.28;;
85158;SDS011;75525;50.718;10.600;2024-02-28T01:54:53;12.25;;;7.22;;
85158;SDS011;75525;50.718;10.600;2024-02-28T01:55:54;12.10;;;7.30;;
85158;SDS011;75525;50.718;10.600;2024-02-28T01:56:55;12.25;;;7.25;;
85158;SDS011;75525;50.718;10.600;2024-02-28T01:57:56;11.82;;;6.43;;
85158;SDS011;75525;50.718;10.600;2024-02-28T01:58:56;14.13;;;7.72;;
85158;SDS011;75525;50.718;10.600;2024-02-28T01:59:58;13.57;;;6.53;;
85158;SDS011;75525;50.718;10.600;2024-02-28T02:01:00;13.07;;;6.93;;
85158;SDS011;75525;50.718;10.600;2024-02-28T02:02:03;12.25;;;6.55;;
85158;SDS011;75525;50.718;10.600;2024-02-28T02:03:03;10.45;;;6.00;;
85158;SDS011;75525;50.718;10.600;2024-02-28T02:04:04;11.85;;;6.65;;
85158;SDS011;75525;50.718;10.600;2024-02-28T02:05:05;10.88;;;6.25;;
85158;SDS011;75525;50.718;10.600;2024-02-28T02:06:07;14.73;;;6.93;;
85158;SDS011;75525;50.718;10.600;2024-02-28T02:07:08;14.13;;;7.30;;
85158;SDS011;75525;50.718;10.600;2024-02-28T02:08:08;14.88;;;7.72;;
85158;SDS011;75525;50.718;10.600;2024-02-28T02:09:09;13.00;;;7.40;;
85158;SDS011;75525;50.718;10.600;2024-02-28T02:10:10;10.85;;;6.20;;
85158;SDS011;75525;50.718;10.600;2024-02-28T02:11:12;11.82;;;7.03;;
85158;SDS011;75525;50.718;10.600;2024-02-28T02:12:15;12.43;;;6.93;;
85158;SDS011;75525;50.718;10.600;2024-02-28T02:13:16;10.48;;;6.10;;
85158;SDS011;75525;50.718;10.600;2024-02-28T02:14:16;11.82;;;6.13;;
85158;SDS011;75525;50.718;10.600;2024-02-28T02:15:17;11.18;;;6.38;;
85158;SDS011;75525;50.718;10.600;2024-02-28T02:16:18;13.77;;;6.65;;
85158;SDS011;75525;50.718;10.600;2024-02-28T02:17:22;11.15;;;6.95;;
85158;SDS011;75525;50.718;10.600;2024-02-28T02:18:23;10.30;;;6.47;;
85158;SDS011;75525;50.718;10.600;2024-02-28T02:19:23;10.60;;;6.28;;
85158;SDS011;75525;50.718;10.600;2024-02-28T02:20:24;11.25;;;6.57;;
85158;SDS011;75525;50.718;10.600;2024-02-28T02:21:30;12.55;;;6.50;;
85158;SDS011;75525;50.718;10.600;2024-02-28T02:22:37;13.45;;;7.13;;
85158;SDS011;75525;50.718;10.600;2024-02-28T02:23:41;12.35;;;6.28;;
85158;SDS011;75525;50.718;10.600;2024-02-28T02:24:41;12.13;;;6.78;;
85158;SDS011;75525;50.718;10.600;2024-02-28T02:25:48;11.13;;;6.80;;
85158;SDS011;75525;50.718;10.600;2024-02-28T02:26:49;10.40;;;6.25;;
85158;SDS011;75525;50.718;10.600;2024-02-28T02:27:52;9.63;;;5.55;;
85158;SDS011;75525;50.718;10.600;2024-02-28T02:28:52;10.32;;;5.97;;
85158;SDS011;75525;50.718;10.600;2024-02-28T02:29:53;12.80;;;6.90;;
85158;SDS011;75525;50.718;10.600;2024-02-28T02:30:53;10.43;;;5.60;;
85158;SDS011;75525;50.718;10.600;2024-02-28T02:31:54;10.55;;;6.20;;
85158;SDS011;75525;50.718;10.600;2024-02-28T02:32:54;12.02;;;6.32;;
85158;SDS011;75525;50.718;10.600;2024-02-28T02:33:55;12.00;;;6.30;;
85158;SDS011;75525;50.718;10.600;2024-02-28T02:34:55;9.77;;;5.50;;
85158;SDS011;75525;50.718;10.600;2024-02-28T02:35:56;9.75;;;5.50;;
85158;SDS011;75525;50.718;10.600;2024-02-28T02:36:56;10.00;;;6.18;;
85158;SDS011;75525;50.718;10.600;2024-02-28T02:37:57;10.38;;;5.68;;
85158;SDS011;75525;50.718;10.600;2024-02-28T02:38:57;10.23;;;4.75;;
85158;SDS011;75525;50.718;10.600;2024-02-28T02:39:58;9.35;;;5.70;;
85158;SDS011;75525;50.718;10.600;2024-02-28T02:40:58;9.43;;;5.50;;
85158;SDS011;75525;50.718;10.600;2024-02-28T02:41:59;12.18;;;5.75;;
85158;SDS011;75525;50.718;10.600;2024-02-28T02:42:59;9.90;;;5.43;;
85158;SDS011;75525;50.718;10.600;2024-02-28T02:44:00;9.98;;;5.85;;
85158;SDS011;75525;50.718;10.600;2024-02-28T02:45:00;10.55;;;5.82;;
85158;SDS011;75525;50.718;10.600;2024-02-28T02:46:00;10.07;;;5.40;;
85158;SDS011;75525;50.718;10.600;2024-02-28T02:47:01;11.63;;;5.80;;
85158;SDS011;75525;50.718;10.600;2024-02-28T02:48:01;9.85;;;5.50;;
85158;SDS011;75525;50.718;10.600;2024-02-28T02:49:02;10.23;;;6.20;;
85158;SDS011;75525;50.718;10.600;2024-02-28T02:50:02;10.02;;;5.43;;
85158;SDS011;75525;50.718;10.600;2024-02-28T02:51:03;11.38;;;6.75;;
85158;SDS011;75525;50.718;10.600;2024-02-28T02:52:04;12.63;;;6.45;;
85158;SDS011;75525;50.718;10.600;2024-02-28T02:53:06;11.88;;;6.55;;
85158;SDS011;75525;50.718;10.600;2024-02-28T02:54:08;11.70;;;6.53;;
85158;SDS011;75525;50.718;10.600;2024-02-28T02:55:08;10.63;;;5.72;;
85158;SDS011;75525;50.718;10.600;2024-02-28T02:56:08;12.38;;;6.47;;
85158;SDS011;75525;50.718;10.600;2024-02-28T02:57:09;10.70;;;6.35;;
85158;SDS011;75525;50.718;10.600;2024-02-28T02:58:09;11.77;;;6.47;;
85158;SDS011;75525;50.718;10.600;2024-02-28T02:59:10;10.27;;;6.25;;
85158;SDS011;75525;50.718;10.600;2024-02-28T03:00:11;12.05;;;6.38;;
85158;SDS011;75525;50.718;10.600;2024-02-28T03:01:12;10.98;;;6.10;;
85158;SDS011;75525;50.718;10.600;2024-02-28T03:02:12;8.98;;;5.43;;
85158;SDS011;75525;50.718;10.600;2024-02-28T03:03:13;10.13;;;6.03;;
85158;SDS011;75525;50.718;10.600;2024-02-28T03:04:13;9.43;;;5.63;;
85158;SDS011;75525;50.718;10.600;2024-02-28T03:05:14;9.68;;;5.65;;
85158;SDS011;75525;50.718;10.600;2024-02-28T03:06:14;9.82;;;5.10;;
85158;SDS011;75525;50.718;10.600;2024-02-28T03:07:15;9.45;;;5.68;;
85158;SDS011;75525;50.718;10.600;2024-02-28T03:08:15;8.95;;;4.93;;
85158;SDS011;75525;50.718;10.600;2024-02-28T03:09:16;8.70;;;5.38;;
85158;SDS011;75525;50.718;10.600;2024-02-28T03:10:16;8.63;;;5.25;;
85158;SDS011;75525;50.718;10.600;2024-02-28T03:11:16;10.95;;;5.30;;
85158;SDS011;75525;50.718;10.600;2024-02-28T03:12:17;8.32;;;5.25;;
85158;SDS011;75525;50.718;10.600;2024-02-28T03:13:17;10.00;;;5.72;;
85158;SDS011;75525;50.718;10.600;2024-02-28T03:14:18;8.07;;;4.80;;
85158;SDS011;75525;50.718;10.600;2024-02-28T03:15:22;8.60;;;4.53;;
85158;SDS011;75525;50.718;10.600;2024-02-28T03:16:22;8.60;;;4.85;;
85158;SDS011;75525;50.718;10.600;2024-02-28T03:17:23;10.32;;;5.05;;
85158;SDS011;75525;50.718;10.600;2024-02-28T03:18:24;8.88;;;4.70;;
85158;SDS011;75525;50.718;10.600;2024-02-28T03:19:24;8.30;;;5.15;;
85158;SDS011;75525;50.718;10.600;2024-02-28T03:20:24;8.68;;;4.97;;
85158;SDS011;75525;50.718;10.600;2024-02-28T03:21:25;8.25;;;5.22;;
85158;SDS011;75525;50.718;10.600;2024-02-28T03:22:26;8.10;;;4.72;;
85158;SDS011;75525;50.718;10.600;2024-02-28T03:23:26;7.13;;;4.35;;
85158;SDS011;75525;50.718;10.600;2024-02-28T03:24:27;8.27;;;4.97;;
85158;SDS011;75525;50.718;10.600;2024-02-28T03:25:27;8.50;;;4.82;;
85158;SDS011;75525;50.718;10.600;2024-02-28T03:26:28;9.63;;;5.20;;
85158;SDS011;75525;50.718;10.600;2024-02-28T03:27:28;7.65;;;5.18;;
85158;SDS011;75525;50.718;10.600;2024-02-28T03:28:29;11.20;;;5.65;;
85158;SDS011;75525;50.718;10.600;2024-02-28T03:29:29;8.80;;;5.18;;
85158;SDS011;75525;50.718;10.600;2024-02-28T03:30:30;9.70;;;4.70;;
85158;SDS011;75525;50.718;10.600;2024-02-28T03:31:30;8.75;;;4.82;;
85158;SDS011;75525;50.718;10.600;2024-02-28T03:32:30;7.65;;;4.40;;
85158;SDS011;75525;50.718;10.600;2024-02-28T03:33:31;7.10;;;4.53;;
85158;SDS011;75525;50.718;10.600;2024-02-28T03:34:33;7.82;;;4.75;;
85158;SDS011;75525;50.718;10.600;2024-02-28T03:35:33;6.63;;;3.97;;
85158;SDS011;75525;50.718;10.600;2024-02-28T03:36:34;7.45;;;4.63;;
85158;SDS011;75525;50.718;10.600;2024-02-28T03:37:35;7.18;;;4.60;;
85158;SDS011;75525;50.718;10.600;2024-02-28T03:38:35;9.50;;;5.35;;
85158;SDS011;75525;50.718;10.600;2024-02-28T03:39:36;7.70;;;4.95;;
85158;SDS011;75525;50.718;10.600;2024-02-28T03:40:37;7.03;;;4.38;;
85158;SDS011;75525;50.718;10.600;2024-02-28T03:41:37;8.88;;;5.00;;
85158;SDS011;75525;50.718;10.600;2024-02-28T03:42:38;8.32;;;5.38;;
85158;SDS011;75525;50.718;10.600;2024-02-28T03:43:39;8.10;;;4.68;;
85158;SDS011;75525;50.718;10.600;2024-02-28T03:44:39;9.60;;;5.40;;
85158;SDS011;75525;50.718;10.600;2024-02-28T03:45:40;8.82;;;4.90;;
85158;SDS011;75525;50.718;10.600;2024-02-28T03:46:41;8.50;;;5.00;;
85158;SDS011;75525;50.718;10.600;2024-02-28T03:47:41;7.28;;;4.65;;
85158;SDS011;75525;50.718;10.600;2024-02-28T03:48:41;7.82;;;4.85;;
85158;SDS011;75525;50.718;10.600;2024-02-28T03:49:42;8.13;;;4.90;;
85158;SDS011;75525;50.718;10.600;2024-02-28T03:50:43;8.43;;;4.80;;
85158;SDS011;75525;50.718;10.600;2024-02-28T03:51:43;8.82;;;5.15;;
85158;SDS011;75525;50.718;10.600;2024-02-28T03:52:44;7.72;;;5.22;;
85158;SDS011;75525;50.718;10.600;2024-02-28T03:53:44;7.85;;;4.55;;
85158;SDS011;75525;50.718;10.600;2024-02-28T03:54:45;6.63;;;4.13;;
85158;SDS011;75525;50.718;10.600;2024-02-28T03:55:45;8.07;;;4.88;;
85158;SDS011;75525;50.718;10.600;2024-02-28T03:56:46;7.35;;;4.70;;
85158;SDS011;75525;50.718;10.600;2024-02-28T03:57:47;8.20;;;4.60;;
85158;SDS011;75525;50.718;10.600;2024-02-28T03:58:48;7.60;;;4.80;;
85158;SDS011;75525;50.718;10.600;2024-02-28T03:59:48;9.43;;;4.85;;
85158;SDS011;75525;50.718;10.600;2024-02-28T04:00:49;10.15;;;4.68;;
85158;SDS011;75525;50.718;10.600;2024-02-28T04:01:49;8.38;;;4.38;;
85158;SDS011;75525;50.718;10.600;2024-02-28T04:02:50;8.15;;;5.13;;
85158;SDS011;75525;50.718;10.600;2024-02-28T04:03:50;7.20;;;4.22;;
85158;SDS011;75525;50.718;10.600;2024-02-28T04:04:50;7.03;;;4.53;;
85158;SDS011;75525;50.718;10.600;2024-02-28T04:05:51;8.43;;;4.53;;
85158;SDS011;75525;50.718;10.600;2024-02-28T04:06:51;5.63;;;3.83;;
85158;SDS011;75525;50.718;10.600;2024-02-28T04:07:52;6.10;;;4.05;;
85158;SDS011;75525;50.718;10.600;2024-02-28T04:08:52;7.68;;;4.32;;
85158;SDS011;75525;50.718;10.600;2024-02-28T04:09:53;7.28;;;4.60;;
85158;SDS011;75525;50.718;10.600;2024-02-28T04:10:53;7.10;;;4.18;;
85158;SDS011;75525;50.718;10.600;2024-02-28T04:11:53;6.30;;;3.90;;
85158;SDS011;75525;50.718;10.600;2024-02-28T04:12:54;6.68;;;4.15;;
85158;SDS011;75525;50.718;10.600;2024-02-28T04:13:55;6.95;;;4.32;;
85158;SDS011;75525;50.718;10.600;2024-02-28T04:14:55;6.82;;;4.47;;
85158;SDS011;75525;50.718;10.600;2024-02-28T04:15:55;6.95;;;4.40;;
85158;SDS011;75525;50.718;10.600;2024-02-28T04:16:56;6.35;;;4.43;;
85158;SDS011;75525;50.718;10.600;2024-02-28T04:17:56;7.53;;;4.20;;
85158;SDS011;75525;50.718;10.600;2024-02-28T04:18:57;8.18;;;4.28;;
85158;SDS011;75525;50.718;10.600;2024-02-28T04:19:57;8.18;;;4.53;;
85158;SDS011;75525;50.718;10.600;2024-02-28T04:20:57;6.40;;;4.32;;
85158;SDS011;75525;50.718;10.600;2024-02-28T04:21:59;6.05;;;4.07;;
85158;SDS011;75525;50.718;10.600;2024-02-28T04:22:59;7.57;;;4.43;;
85158;SDS011;75525;50.718;10.600;2024-02-28T04:23:59;7.72;;;4.63;;
85158;SDS011;75525;50.718;10.600;2024-02-28T04:25:00;6.90;;;4.05;;
85158;SDS011;75525;50.718;10.600;2024-02-28T04:26:00;7.57;;;4.65;;
85158;SDS011;75525;50.718;10.600;2024-02-28T04:27:01;6.68;;;4.25;;
85158;SDS011;75525;50.718;10.600;2024-02-28T04:28:04;6.50;;;4.45;;
85158;SDS011;75525;50.718;10.600;2024-02-28T04:29:05;7.95;;;4.63;;
85158;SDS011;75525;50.718;10.600;2024-02-28T04:30:07;6.10;;;4.07;;
85158;SDS011;75525;50.718;10.600;2024-02-28T04:31:08;7.38;;;4.55;;
85158;SDS011;75525;50.718;10.600;2024-02-28T04:32:09;6.80;;;4.15;;
85158;SDS011;75525;50.718;10.600;2024-02-28T04:33:09;7.20;;;4.57;;
85158;SDS011;75525;50.718;10.600;2024-02-28T04:34:10;6.88;;;3.85;;
85158;SDS011;75525;50.718;10.600;2024-02-28T04:35:10;5.93;;;3.92;;
85158;SDS011;75525;50.718;10.600;2024-02-28T04:36:11;7.28;;;4.43;;
85158;SDS011;75525;50.718;10.600;2024-02-28T04:37:11;7.35;;;4.15;;
85158;SDS011;75525;50.718;10.600;2024-02-28T04:38:12;6.13;;;3.85;;
85158;SDS011;75525;50.718;10.600;2024-02-28T04:39:12;7.47;;;4.43;;
85158;SDS011;75525;50.718;10.600;2024-02-28T04:40:13;6.57;;;4.22;;
85158;SDS011;75525;50.718;10.600;2024-02-28T04:41:13;7.47;;;4.28;;
85158;SDS011;75525;50.718;10.600;2024-02-28T04:42:15;8.65;;;4.75;;
85158;SDS011;75525;50.718;10.600;2024-02-28T04:43:16;7.18;;;4.25;;
85158;SDS011;75525;50.718;10.600;2024-02-28T04:44:16;7.70;;;4.55;;
85158;SDS011;75525;50.718;10.600;2024-02-28T04:45:17;6.00;;;4.05;;
85158;SDS011;75525;50.718;10.600;2024-02-28T04:46:17;6.55;;;3.95;;
85158;SDS011;75525;50.718;10.600;2024-02-28T04:47:17;8.20;;;4.47;;
85158;SDS011;75525;50.718;10.600;2024-02-28T04:48:18;6.85;;;3.97;;
85158;SDS011;75525;50.718;10.600;2024-02-28T04:49:18;6.43;;;3.75;;
85158;SDS011;75525;50.718;10.600;2024-02-28T04:50:19;6.35;;;3.90;;
85158;SDS011;75525;50.718;10.600;2024-02-28T04:51:19;6.25;;;3.85;;
85158;SDS011;75525;50.718;10.600;2024-02-28T04:52:20;6.60;;;3.95;;
85158;SDS011;75525;50.718;10.600;2024-02-28T04:53:20;6.15;;;4.28;;
85158;SDS011;75525;50.718;10.600;2024-02-28T04:54:21;6.57;;;3.88;;
85158;SDS011;75525;50.718;10.600;2024-02-28T04:55:21;8.82;;;4.90;;
85158;SDS011;75525;50.718;10.600;2024-02-28T04:56:22;7.40;;;4.38;;
85158;SDS011;75525;50.718;10.600;2024-02-28T04:57:23;6.50;;;4.07;;
85158;SDS011;75525;50.718;10.600;2024-02-28T04:58:24;6.45;;;3.95;;
85158;SDS011;75525;50.718;10.600;2024-02-28T04:59:24;6.30;;;3.92;;
85158;SDS011;75525;50.718;10.600;2024-02-28T05:00:24;7.57;;;3.90;;
85158;SDS011;75525;50.718;10.600;2024-02-28T05:01:25;6.05;;;3.85;;
85158;SDS011;75525;50.718;10.600;2024-02-28T05:02:25;6.22;;;3.50;;
85158;SDS011;75525;50.718;10.600;2024-02-28T05:03:26;7.78;;;4.50;;
85158;SDS011;75525;50.718;10.600;2024-02-28T05:04:26;7.22;;;4.85;;
85158;SDS011;75525;50.718;10.600;2024-02-28T05:05:27;6.05;;;3.90;;
85158;SDS011;75525;50.718;10.600;2024-02-28T05:06:28;8.57;;;4.90;;
85158;SDS011;75525;50.718;10.600;2024-02-28T05:07:29;7.13;;;4.03;;
85158;SDS011;75525;50.718;10.600;2024-02-28T05:08:29;6.50;;;3.97;;
85158;SDS011;75525;50.718;10.600;2024-02-28T05:09:30;6.68;;;4.00;;
85158;SDS011;75525;50.718;10.600;2024-02-28T05:10:30;7.13;;;4.00;;
85158;SDS011;75525;50.718;10.600;2024-02-28T05:11:31;6.70;;;4.32;;
85158;SDS011;75525;50.718;10.600;2024-02-28T05:12:32;7.32;;;4.25;;
85158;SDS011;75525;50.718;10.600;2024-02-28T05:13:32;7.35;;;4.18;;
85158;SDS011;75525;50.718;10.600;2024-02-28T05:14:33;7.90;;;4.32;;
85158;SDS011;75525;50.718;10.600;2024-02-28T05:15:33;9.65;;;4.30;;
85158;SDS011;75525;50.718;10.600;2024-02-28T05:16:34;5.60;;;3.42;;
85158;SDS011;75525;50.718;10.600;2024-02-28T05:17:34;6.40;;;4.10;;
85158;SDS011;75525;50.718;10.600;2024-02-28T05:18:35;6.10;;;4.03;;
85158;SDS011;75525;50.718;10.600;2024-02-28T05:19:35;8.10;;;4.10;;
85158;SDS011;75525;50.718;10.600;2024-02-28T05:20:36;7.85;;;4.22;;
85158;SDS011;75525;50.718;10.600;2024-02-28T05:21:40;6.00;;;3.50;;
85158;SDS011;75525;50.718;10.600;2024-02-28T05:22:41;7.90;;;4.25;;
85158;SDS011;75525;50.718;10.600;2024-02-28T05:23:42;7.28;;;3.97;;
85158;SDS011;75525;50.718;10.600;2024-02-28T05:24:45;6.05;;;3.53;;
85158;SDS011;75525;50.718;10.600;2024-02-28T05:25:46;6.22;;;3.97;;
85158;SDS011;75525;50.718;10.600;2024-02-28T05:26:46;7.35;;;4.07;;
85158;SDS011;75525;50.718;10.600;2024-02-28T05:27:47;7.15;;;3.83;;
85158;SDS011;75525;50.718;10.600;2024-02-28T05:28:47;6.57;;;3.67;;
85158;SDS011;75525;50.718;10.600;2024-02-28T05:29:49;8.02;;;3.85;;
85158;SDS011;75525;50.718;10.600;2024-02-28T05:30:49;6.40;;;3.63;;
85158;SDS011;75525;50.718;10.600;2024-02-28T05:31:50;8.85;;;4.10;;
85158;SDS011;75525;50.718;10.600;2024-02-28T05:32:50;6.07;;;3.63;;
85158;SDS011;75525;50.718;10.600;2024-02-28T05:33:54;4.72;;;3.13;;
85158;SDS011;75525;50.718;10.600;2024-02-28T05:34:58;4.60;;;3.13;;
85158;SDS011;75525;50.718;10.600;2024-02-28T05:35:59;5.38;;;3.45;;
85158;SDS011;75525;50.718;10.600;2024-02-28T05:37:00;6.00;;;3.72;;
85158;SDS011;75525;50.718;10.600;2024-02-28T05:38:01;7.97;;;3.92;;
85158;SDS011;75525;50.718;10.600;2024-02-28T05:39:02;6.05;;;3.70;;
85158;SDS011;75525;50.718;10.600;2024-02-28T05:40:06;5.70;;;3.45;;
85158;SDS011;75525;50.718;10.600;2024-02-28T05:41:07;6.70;;;3.72;;
85158;SDS011;75525;50.718;10.600;2024-02-28T05:42:08;6.63;;;3.85;;
85158;SDS011;75525;50.718;10.600;2024-02-28T05:43:09;6.88;;;3.83;;
85158;SDS011;75525;50.718;10.600;2024-02-28T05:44:09;8.25;;;4.22;;
85158;SDS011;75525;50.718;10.600;2024-02-28T05:45:10;6.05;;;4.15;;
85158;SDS011;75525;50.718;10.600;2024-02-28T05:46:10;7.35;;;4.00;;
85158;SDS011;75525;50.718;10.600;2024-02-28T05:47:11;7.18;;;3.65;;
85158;SDS011;75525;50.718;10.600;2024-02-28T05:48:11;6.18;;;4.00;;
85158;SDS011;75525;50.718;10.600;2024-02-28T05:49:11;6.80;;;4.30;;
85158;SDS011;75525;50.718;10.600;2024-02-28T05:50:12;6.32;;;3.85;;
85158;SDS011;75525;50.718;10.600;2024-02-28T05:51:14;7.93;;;4.00;;
85158;SDS011;75525;50.718;10.600;2024-02-28T05:52:15;6.20;;;3.60;;
85158;SDS011;75525;50.718;10.600;2024-02-28T05:53:16;7.22;;;3.72;;
85158;SDS011;75525;50.718;10.600;2024-02-28T05:54:16;6.80;;;3.90;;
85158;SDS011;75525;50.718;10.600;2024-02-28T05:55:17;6.30;;;3.42;;
85158;SDS011;75525;50.718;10.600;2024-02-28T05:56:17;4.93;;;3.40;;
85158;SDS011;75525;50.718;10.600;2024-02-28T05:57:19;5.13;;;3.25;;
85158;SDS011;75525;50.718;10.600;2024-02-28T05:58:20;6.18;;;3.10;;